sensor_id;sensor_type;location;lat;lon;timestamp;temperature;humidity
2100;DHT22;1055;48.854;9.302;2023-02-13T00:01:16;2.90;99.90
2100;DHT22;1055;48.854;9.302;2023-02-13T00:03:42;2.60;99.90
2100;DHT22;1055;48.854;9.302;2023-02-13T00:06:08;2.50;99.90
2100;DHT22;1055;48.854;9.302;2023-02-13T00:08:34;2.70;99.90
2100;DHT22;1055;48.854;9.302;2023-02-13T00:11:00;2.90;99.90
2100;DHT22;1055;48.854;9.302;2023-02-13T00:13:25;3.00;99.90
2100;DHT22;1055;48.854;9.302;2023-02-13T00:15:59;2.80;99.90
2100;DHT22;1055;48.854;9.302;2023-02-13T00:18:26;2.80;99.90
2100;DHT22;1055;48.854;9.302;2023-02-13T00:21:03;2.80;99.90
2100;DHT22;1055;48.854;9.302;2023-02-13T00:23:30;2.80;99.90
2100;DHT22;1055;48.854;9.302;2023-02-13T00:25:57;2.90;99.90
2100;DHT22;1055;48.854;9.302;2023-02-13T00:28:23;2.90;99.90
2100;DHT22;1055;48.854;9.302;2023-02-13T00:30:49;2.90;99.90
2100;DHT22;1055;48.854;9.302;2023-02-13T00:33:14;2.90;99.90
2100;DHT22;1055;48.854;9.302;2023-02-13T00:35:40;2.70;99.90
2100;DHT22;1055;48.854;9.302;2023-02-13T00:38:06;2.70;99.90
2100;DHT22;1055;48.854;9.302;2023-02-13T00:40:31;2.80;99.90
2100;DHT22;1055;48.854;9.302;2023-02-13T00:42:57;2.80;99.90
2100;DHT22;1055;48.854;9.302;2023-02-13T00:45:22;2.90;99.90
2100;DHT22;1055;48.854;9.302;2023-02-13T00:47:48;2.90;99.90
2100;DHT22;1055;48.854;9.302;2023-02-13T00:50:14;3.00;99.90
2100;DHT22;1055;48.854;9.302;2023-02-13T00:52:39;3.00;99.90
2100;DHT22;1055;48.854;9.302;2023-02-13T00:55:05;3.00;99.90
2100;DHT22;1055;48.854;9.302;2023-02-13T00:57:31;3.00;99.90
2100;DHT22;1055;48.854;9.302;2023-02-13T00:59:57;2.80;99.90
2100;DHT22;1055;48.854;9.302;2023-02-13T01:02:23;2.70;99.90
2100;DHT22;1055;48.854;9.302;2023-02-13T01:04:49;2.60;99.90
2100;DHT22;1055;48.854;9.302;2023-02-13T01:07:14;2.60;99.90
2100;DHT22;1055;48.854;9.302;2023-02-13T01:09:40;2.60;99.90
2100;DHT22;1055;48.854;9.302;2023-02-13T01:12:06;2.60;99.90
2100;DHT22;1055;48.854;9.302;2023-02-13T01:14:31;2.60;99.90
2100;DHT22;1055;48.854;9.302;2023-02-13T01:16:57;2.70;99.90
2100;DHT22;1055;48.854;9.302;2023-02-13T01:19:23;2.60;99.90
2100;DHT22;1055;48.854;9.302;2023-02-13T01:21:48;2.60;99.90
2100;DHT22;1055;48.854;9.302;2023-02-13T01:24:14;2.50;99.90
2100;DHT22;1055;48.854;9.302;2023-02-13T01:26:40;2.40;99.90
2100;DHT22;1055;48.854;9.302;2023-02-13T01:29:05;2.10;99.90
2100;DHT22;1055;48.854;9.302;2023-02-13T01:31:31;2.00;99.90
2100;DHT22;1055;48.854;9.302;2023-02-13T01:33:58;2.10;99.90
2100;DHT22;1055;48.854;9.302;2023-02-13T01:36:24;2.20;99.90
2100;DHT22;1055;48.854;9.302;2023-02-13T01:38:55;2.10;99.90
2100;DHT22;1055;48.854;9.302;2023-02-13T01:41:22;2.10;99.90
2100;DHT22;1055;48.854;9.302;2023-02-13T01:43:59;2.10;99.90
2100;DHT22;1055;48.854;9.302;2023-02-13T01:46:32;2.20;99.90
2100;DHT22;1055;48.854;9.302;2023-02-13T01:49:13;2.20;99.90
2100;DHT22;1055;48.854;9.302;2023-02-13T01:51:40;2.20;99.90
2100;DHT22;1055;48.854;9.302;2023-02-13T01:54:09;2.20;99.90
2100;DHT22;1055;48.854;9.302;2023-02-13T01:56:54;2.20;99.90
2100;DHT22;1055;48.854;9.302;2023-02-13T01:59:33;2.30;99.90
2100;DHT22;1055;48.854;9.302;2023-02-13T02:02:02;2.30;99.90
2100;DHT22;1055;48.854;9.302;2023-02-13T02:04:33;2.30;99.90
2100;DHT22;1055;48.854;9.302;2023-02-13T02:07:18;2.30;99.90
2100;DHT22;1055;48.854;9.302;2023-02-13T02:09:44;2.30;99.90
2100;DHT22;1055;48.854;9.302;2023-02-13T02:14:48;2.20;99.90
2100;DHT22;1055;48.854;9.302;2023-02-13T02:17:15;2.00;99.90
2100;DHT22;1055;48.854;9.302;2023-02-13T02:28:14;1.90;99.90
2100;DHT22;1055;48.854;9.302;2023-02-13T02:45:24;1.70;99.90
2100;DHT22;1055;48.854;9.302;2023-02-13T02:51:10;1.80;99.90
2100;DHT22;1055;48.854;9.302;2023-02-13T02:53:47;1.80;99.90
2100;DHT22;1055;48.854;9.302;2023-02-13T02:56:19;1.90;99.90
2100;DHT22;1055;48.854;9.302;2023-02-13T02:58:55;1.90;99.90
2100;DHT22;1055;48.854;9.302;2023-02-13T03:01:55;1.80;99.90
2100;DHT22;1055;48.854;9.302;2023-02-13T03:04:45;1.60;99.90
2100;DHT22;1055;48.854;9.302;2023-02-13T03:07:31;1.50;99.90
2100;DHT22;1055;48.854;9.302;2023-02-13T03:10:05;1.50;99.90
2100;DHT22;1055;48.854;9.302;2023-02-13T03:13:27;1.50;99.90
2100;DHT22;1055;48.854;9.302;2023-02-13T03:15:57;1.30;99.90
2100;DHT22;1055;48.854;9.302;2023-02-13T03:18:45;1.40;99.90
2100;DHT22;1055;48.854;9.302;2023-02-13T03:24:52;1.40;99.90
2100;DHT22;1055;48.854;9.302;2023-02-13T03:36:00;0.90;99.90
2100;DHT22;1055;48.854;9.302;2023-02-13T03:39:04;0.70;99.90
2100;DHT22;1055;48.854;9.302;2023-02-13T03:44:40;1.00;99.90
2100;DHT22;1055;48.854;9.302;2023-02-13T03:47:09;1.20;99.90
2100;DHT22;1055;48.854;9.302;2023-02-13T03:49:41;1.20;99.90
2100;DHT22;1055;48.854;9.302;2023-02-13T03:52:54;1.30;99.90
2100;DHT22;1055;48.854;9.302;2023-02-13T03:55:30;1.40;99.90
2100;DHT22;1055;48.854;9.302;2023-02-13T03:58:40;1.50;99.90
2100;DHT22;1055;48.854;9.302;2023-02-13T04:01:27;1.50;99.90
2100;DHT22;1055;48.854;9.302;2023-02-13T04:04:41;1.70;99.90
2100;DHT22;1055;48.854;9.302;2023-02-13T04:06:57;1.70;99.90
2100;DHT22;1055;48.854;9.302;2023-02-13T04:09:25;1.70;99.90
2100;DHT22;1055;48.854;9.302;2023-02-13T04:12:15;1.60;99.90
2100;DHT22;1055;48.854;9.302;2023-02-13T04:15:09;1.70;99.90
2100;DHT22;1055;48.854;9.302;2023-02-13T04:17:42;1.50;99.90
2100;DHT22;1055;48.854;9.302;2023-02-13T04:20:10;1.10;99.90
2100;DHT22;1055;48.854;9.302;2023-02-13T04:22:42;1.20;99.90
2100;DHT22;1055;48.854;9.302;2023-02-13T04:25:09;1.30;99.90
2100;DHT22;1055;48.854;9.302;2023-02-13T04:27:35;1.30;99.90
2100;DHT22;1055;48.854;9.302;2023-02-13T04:30:01;1.30;99.90
2100;DHT22;1055;48.854;9.302;2023-02-13T04:32:26;1.20;99.90
2100;DHT22;1055;48.854;9.302;2023-02-13T04:34:53;1.20;99.90
2100;DHT22;1055;48.854;9.302;2023-02-13T04:37:18;1.10;99.90
2100;DHT22;1055;48.854;9.302;2023-02-13T04:39:44;1.10;99.90
2100;DHT22;1055;48.854;9.302;2023-02-13T04:42:09;1.10;99.90
2100;DHT22;1055;48.854;9.302;2023-02-13T04:44:35;1.20;99.90
2100;DHT22;1055;48.854;9.302;2023-02-13T04:47:01;1.10;99.90
2100;DHT22;1055;48.854;9.302;2023-02-13T04:49:26;1.20;99.90
2100;DHT22;1055;48.854;9.302;2023-02-13T04:51:52;1.10;99.90
2100;DHT22;1055;48.854;9.302;2023-02-13T04:54:17;1.10;99.90
2100;DHT22;1055;48.854;9.302;2023-02-13T04:56:43;1.10;99.90
2100;DHT22;1055;48.854;9.302;2023-02-13T04:59:08;1.10;99.90
2100;DHT22;1055;48.854;9.302;2023-02-13T05:01:34;1.20;99.90
2100;DHT22;1055;48.854;9.302;2023-02-13T05:04:00;1.00;99.90
2100;DHT22;1055;48.854;9.302;2023-02-13T05:06:25;0.90;99.90
2100;DHT22;1055;48.854;9.302;2023-02-13T05:08:51;1.00;99.90
2100;DHT22;1055;48.854;9.302;2023-02-13T05:11:16;0.90;99.90
2100;DHT22;1055;48.854;9.302;2023-02-13T05:13:42;1.00;99.90
2100;DHT22;1055;48.854;9.302;2023-02-13T05:16:07;0.90;99.90
2100;DHT22;1055;48.854;9.302;2023-02-13T05:18:33;0.80;99.90
2100;DHT22;1055;48.854;9.302;2023-02-13T05:20:58;0.80;99.90
2100;DHT22;1055;48.854;9.302;2023-02-13T05:23:43;0.70;99.90
2100;DHT22;1055;48.854;9.302;2023-02-13T05:26:08;0.70;99.90
2100;DHT22;1055;48.854;9.302;2023-02-13T05:28:34;0.70;99.90
2100;DHT22;1055;48.854;9.302;2023-02-13T05:31:18;0.70;99.90
2100;DHT22;1055;48.854;9.302;2023-02-13T05:33:44;0.60;99.90
2100;DHT22;1055;48.854;9.302;2023-02-13T05:36:10;0.70;99.90
2100;DHT22;1055;48.854;9.302;2023-02-13T05:38:35;0.70;99.90
2100;DHT22;1055;48.854;9.302;2023-02-13T05:41:01;0.70;99.90
2100;DHT22;1055;48.854;9.302;2023-02-13T05:43:28;0.10;99.90
2100;DHT22;1055;48.854;9.302;2023-02-13T05:46:05;-0.40;99.90
2100;DHT22;1055;48.854;9.302;2023-02-13T05:48:31;-0.40;99.90
2100;DHT22;1055;48.854;9.302;2023-02-13T05:50:57;-0.20;99.90
2100;DHT22;1055;48.854;9.302;2023-02-13T05:53:23;-0.60;99.90
2100;DHT22;1055;48.854;9.302;2023-02-13T05:55:48;-0.70;99.90
2100;DHT22;1055;48.854;9.302;2023-02-13T05:58:17;-0.70;99.90
2100;DHT22;1055;48.854;9.302;2023-02-13T06:00:43;-0.60;99.90
2100;DHT22;1055;48.854;9.302;2023-02-13T06:03:08;-0.70;99.90
2100;DHT22;1055;48.854;9.302;2023-02-13T06:05:34;-0.90;99.90
2100;DHT22;1055;48.854;9.302;2023-02-13T06:08:00;-0.70;99.90
2100;DHT22;1055;48.854;9.302;2023-02-13T06:10:25;-0.80;99.90
2100;DHT22;1055;48.854;9.302;2023-02-13T06:12:51;-1.00;99.90
2100;DHT22;1055;48.854;9.302;2023-02-13T06:15:17;-1.10;99.90
2100;DHT22;1055;48.854;9.302;2023-02-13T06:17:42;-1.00;99.90
2100;DHT22;1055;48.854;9.302;2023-02-13T06:20:09;-1.00;99.90
2100;DHT22;1055;48.854;9.302;2023-02-13T06:22:35;-1.00;99.90
2100;DHT22;1055;48.854;9.302;2023-02-13T06:25:01;-0.80;99.90
2100;DHT22;1055;48.854;9.302;2023-02-13T06:27:26;-0.60;99.90
2100;DHT22;1055;48.854;9.302;2023-02-13T06:29:52;-0.30;99.90
2100;DHT22;1055;48.854;9.302;2023-02-13T06:32:17;-0.20;99.90
2100;DHT22;1055;48.854;9.302;2023-02-13T06:34:43;-0.10;99.90
2100;DHT22;1055;48.854;9.302;2023-02-13T06:37:09;-0.30;99.90
2100;DHT22;1055;48.854;9.302;2023-02-13T06:39:34;-0.30;99.90
2100;DHT22;1055;48.854;9.302;2023-02-13T06:42:00;-0.20;99.90
2100;DHT22;1055;48.854;9.302;2023-02-13T06:44:26;0.10;99.90
2100;DHT22;1055;48.854;9.302;2023-02-13T06:46:51;-0.20;99.90
2100;DHT22;1055;48.854;9.302;2023-02-13T06:49:17;-0.10;99.90
2100;DHT22;1055;48.854;9.302;2023-02-13T06:51:43;0.20;99.90
2100;DHT22;1055;48.854;9.302;2023-02-13T06:54:08;0.30;99.90
2100;DHT22;1055;48.854;9.302;2023-02-13T06:56:34;0.40;99.90
2100;DHT22;1055;48.854;9.302;2023-02-13T06:58:59;0.50;99.90
2100;DHT22;1055;48.854;9.302;2023-02-13T07:01:25;0.60;99.90
2100;DHT22;1055;48.854;9.302;2023-02-13T07:03:51;0.60;99.90
2100;DHT22;1055;48.854;9.302;2023-02-13T07:06:20;0.70;99.90
2100;DHT22;1055;48.854;9.302;2023-02-13T07:08:46;0.80;99.90
2100;DHT22;1055;48.854;9.302;2023-02-13T07:11:18;0.70;99.90
2100;DHT22;1055;48.854;9.302;2023-02-13T07:13:44;0.80;99.90
2100;DHT22;1055;48.854;9.302;2023-02-13T07:16:10;0.80;99.90
2100;DHT22;1055;48.854;9.302;2023-02-13T07:18:35;0.80;99.90
2100;DHT22;1055;48.854;9.302;2023-02-13T07:21:01;0.90;99.90
2100;DHT22;1055;48.854;9.302;2023-02-13T07:23:27;0.90;99.90
2100;DHT22;1055;48.854;9.302;2023-02-13T07:25:52;1.00;99.90
2100;DHT22;1055;48.854;9.302;2023-02-13T07:28:18;1.00;99.90
2100;DHT22;1055;48.854;9.302;2023-02-13T07:30:43;0.90;99.90
2100;DHT22;1055;48.854;9.302;2023-02-13T07:33:09;0.90;99.90
2100;DHT22;1055;48.854;9.302;2023-02-13T07:35:35;0.90;99.90
2100;DHT22;1055;48.854;9.302;2023-02-13T07:38:02;0.90;99.90
2100;DHT22;1055;48.854;9.302;2023-02-13T07:40:28;0.90;99.90
2100;DHT22;1055;48.854;9.302;2023-02-13T07:42:54;0.70;99.90
2100;DHT22;1055;48.854;9.302;2023-02-13T07:45:20;0.40;99.90
2100;DHT22;1055;48.854;9.302;2023-02-13T07:47:45;0.20;99.90
2100;DHT22;1055;48.854;9.302;2023-02-13T07:50:11;0.00;99.90
2100;DHT22;1055;48.854;9.302;2023-02-13T07:52:37;0.00;99.90
2100;DHT22;1055;48.854;9.302;2023-02-13T07:55:04;0.10;99.90
2100;DHT22;1055;48.854;9.302;2023-02-13T07:57:30;0.10;99.90
2100;DHT22;1055;48.854;9.302;2023-02-13T07:59:56;-0.10;99.90
2100;DHT22;1055;48.854;9.302;2023-02-13T08:02:22;-0.10;99.90
2100;DHT22;1055;48.854;9.302;2023-02-13T08:04:48;0.00;99.90
2100;DHT22;1055;48.854;9.302;2023-02-13T08:07:15;0.00;99.90
2100;DHT22;1055;48.854;9.302;2023-02-13T08:09:43;0.20;99.90
2100;DHT22;1055;48.854;9.302;2023-02-13T08:12:28;0.20;99.90
2100;DHT22;1055;48.854;9.302;2023-02-13T08:14:54;0.40;99.90
2100;DHT22;1055;48.854;9.302;2023-02-13T08:17:20;0.40;99.90
2100;DHT22;1055;48.854;9.302;2023-02-13T08:19:45;0.60;99.90
2100;DHT22;1055;48.854;9.302;2023-02-13T08:22:11;0.60;99.90
2100;DHT22;1055;48.854;9.302;2023-02-13T08:24:36;0.60;99.90
2100;DHT22;1055;48.854;9.302;2023-02-13T08:27:02;0.50;99.90
2100;DHT22;1055;48.854;9.302;2023-02-13T08:29:28;0.70;99.90
2100;DHT22;1055;48.854;9.302;2023-02-13T08:31:53;0.60;99.90
2100;DHT22;1055;48.854;9.302;2023-02-13T08:34:19;0.60;99.90
2100;DHT22;1055;48.854;9.302;2023-02-13T08:36:45;0.70;99.90
2100;DHT22;1055;48.854;9.302;2023-02-13T08:39:10;1.00;99.90
2100;DHT22;1055;48.854;9.302;2023-02-13T08:41:36;1.20;99.90
2100;DHT22;1055;48.854;9.302;2023-02-13T08:44:02;1.40;99.90
2100;DHT22;1055;48.854;9.302;2023-02-13T08:46:27;1.50;99.90
2100;DHT22;1055;48.854;9.302;2023-02-13T08:48:53;1.70;99.90
2100;DHT22;1055;48.854;9.302;2023-02-13T08:51:19;1.70;99.90
2100;DHT22;1055;48.854;9.302;2023-02-13T08:53:44;1.70;99.90
2100;DHT22;1055;48.854;9.302;2023-02-13T08:56:10;1.80;99.90
2100;DHT22;1055;48.854;9.302;2023-02-13T08:58:36;1.80;99.90
2100;DHT22;1055;48.854;9.302;2023-02-13T09:01:06;1.90;99.90
2100;DHT22;1055;48.854;9.302;2023-02-13T09:03:32;2.00;99.90
2100;DHT22;1055;48.854;9.302;2023-02-13T09:05:59;2.20;99.90
2100;DHT22;1055;48.854;9.302;2023-02-13T09:08:25;2.40;99.90
2100;DHT22;1055;48.854;9.302;2023-02-13T09:10:58;2.60;99.90
2100;DHT22;1055;48.854;9.302;2023-02-13T09:13:26;2.80;99.90
2100;DHT22;1055;48.854;9.302;2023-02-13T09:15:52;2.90;99.90
2100;DHT22;1055;48.854;9.302;2023-02-13T09:18:18;3.10;99.90
2100;DHT22;1055;48.854;9.302;2023-02-13T09:20:43;3.20;99.90
2100;DHT22;1055;48.854;9.302;2023-02-13T09:23:09;3.30;99.90
2100;DHT22;1055;48.854;9.302;2023-02-13T09:25:35;3.40;99.90
2100;DHT22;1055;48.854;9.302;2023-02-13T09:28:01;3.50;99.90
2100;DHT22;1055;48.854;9.302;2023-02-13T09:30:26;3.50;99.90
2100;DHT22;1055;48.854;9.302;2023-02-13T09:32:53;3.50;99.90
2100;DHT22;1055;48.854;9.302;2023-02-13T09:35:19;3.70;99.90
2100;DHT22;1055;48.854;9.302;2023-02-13T09:37:45;3.80;99.90
2100;DHT22;1055;48.854;9.302;2023-02-13T09:40:22;3.90;99.90
2100;DHT22;1055;48.854;9.302;2023-02-13T09:42:50;4.10;99.90
2100;DHT22;1055;48.854;9.302;2023-02-13T09:45:19;3.90;99.90
2100;DHT22;1055;48.854;9.302;2023-02-13T09:47:46;3.90;99.90
2100;DHT22;1055;48.854;9.302;2023-02-13T09:50:28;4.00;99.90
2100;DHT22;1055;48.854;9.302;2023-02-13T09:52:56;4.20;99.90
2100;DHT22;1055;48.854;9.302;2023-02-13T10:00:26;4.50;99.90
2100;DHT22;1055;48.854;9.302;2023-02-13T10:03:19;4.40;99.90
2100;DHT22;1055;48.854;9.302;2023-02-13T10:16:22;4.70;99.90
2100;DHT22;1055;48.854;9.302;2023-02-13T10:19:41;4.90;99.90
2100;DHT22;1055;48.854;9.302;2023-02-13T10:21:52;4.90;99.90
2100;DHT22;1055;48.854;9.302;2023-02-13T10:24:46;5.00;99.90
2100;DHT22;1055;48.854;9.302;2023-02-13T10:27:20;5.00;99.90
2100;DHT22;1055;48.854;9.302;2023-02-13T10:30:18;5.10;99.90
2100;DHT22;1055;48.854;9.302;2023-02-13T10:35:28;5.40;99.90
2100;DHT22;1055;48.854;9.302;2023-02-13T10:37:57;5.70;99.90
2100;DHT22;1055;48.854;9.302;2023-02-13T10:40:35;5.70;99.90
2100;DHT22;1055;48.854;9.302;2023-02-13T10:43:09;5.50;99.90
2100;DHT22;1055;48.854;9.302;2023-02-13T10:45:45;5.70;99.90
2100;DHT22;1055;48.854;9.302;2023-02-13T10:51:09;5.60;99.90
2100;DHT22;1055;48.854;9.302;2023-02-13T10:57:03;5.90;99.90
2100;DHT22;1055;48.854;9.302;2023-02-13T11:02:22;6.10;99.90
2100;DHT22;1055;48.854;9.302;2023-02-13T11:04:51;6.10;99.90
2100;DHT22;1055;48.854;9.302;2023-02-13T11:07:23;6.40;99.90
2100;DHT22;1055;48.854;9.302;2023-02-13T11:09:52;6.40;99.90
2100;DHT22;1055;48.854;9.302;2023-02-13T11:12:31;6.30;99.90
2100;DHT22;1055;48.854;9.302;2023-02-13T11:15:08;6.40;99.90
2100;DHT22;1055;48.854;9.302;2023-02-13T11:17:44;6.40;99.90
2100;DHT22;1055;48.854;9.302;2023-02-13T11:20:39;6.50;99.90
2100;DHT22;1055;48.854;9.302;2023-02-13T11:23:39;6.70;99.90
2100;DHT22;1055;48.854;9.302;2023-02-13T11:26:13;6.80;99.90
2100;DHT22;1055;48.854;9.302;2023-02-13T11:29:00;6.60;99.90
2100;DHT22;1055;48.854;9.302;2023-02-13T11:31:33;6.90;99.90
2100;DHT22;1055;48.854;9.302;2023-02-13T11:36:52;6.80;99.90
2100;DHT22;1055;48.854;9.302;2023-02-13T11:39:20;7.00;99.90
2100;DHT22;1055;48.854;9.302;2023-02-13T11:41:47;7.20;99.90
2100;DHT22;1055;48.854;9.302;2023-02-13T11:46:49;7.10;99.90
2100;DHT22;1055;48.854;9.302;2023-02-13T11:49:26;7.30;99.90
2100;DHT22;1055;48.854;9.302;2023-02-13T11:51:55;7.40;99.90
2100;DHT22;1055;48.854;9.302;2023-02-13T11:54:27;7.40;99.90
2100;DHT22;1055;48.854;9.302;2023-02-13T11:59:53;7.60;99.90
2100;DHT22;1055;48.854;9.302;2023-02-13T12:02:22;7.80;99.90
2100;DHT22;1055;48.854;9.302;2023-02-13T12:04:52;7.80;99.90
2100;DHT22;1055;48.854;9.302;2023-02-13T12:07:26;8.10;99.90
2100;DHT22;1055;48.854;9.302;2023-02-13T12:10:00;8.20;99.90
2100;DHT22;1055;48.854;9.302;2023-02-13T12:12:39;8.20;99.90
2100;DHT22;1055;48.854;9.302;2023-02-13T12:15:19;8.10;99.90
2100;DHT22;1055;48.854;9.302;2023-02-13T12:17:52;8.30;99.90
2100;DHT22;1055;48.854;9.302;2023-02-13T12:20:21;8.20;99.90
2100;DHT22;1055;48.854;9.302;2023-02-13T12:25:52;8.60;99.90
2100;DHT22;1055;48.854;9.302;2023-02-13T12:28:27;8.60;99.90
2100;DHT22;1055;48.854;9.302;2023-02-13T12:31:28;8.70;99.90
2100;DHT22;1055;48.854;9.302;2023-02-13T12:39:25;9.40;99.90
2100;DHT22;1055;48.854;9.302;2023-02-13T12:47:18;10.30;99.90
2100;DHT22;1055;48.854;9.302;2023-02-13T12:50:17;10.40;99.90
2100;DHT22;1055;48.854;9.302;2023-02-13T13:09:46;12.30;99.90
2100;DHT22;1055;48.854;9.302;2023-02-13T13:22:49;12.20;99.90
2100;DHT22;1055;48.854;9.302;2023-02-13T13:25:24;12.60;99.90
2100;DHT22;1055;48.854;9.302;2023-02-13T13:28:18;12.40;99.90
2100;DHT22;1055;48.854;9.302;2023-02-13T13:30:45;12.20;99.90
2100;DHT22;1055;48.854;9.302;2023-02-13T13:38:24;12.80;99.90
2100;DHT22;1055;48.854;9.302;2023-02-13T13:40:59;13.40;99.90
2100;DHT22;1055;48.854;9.302;2023-02-13T13:43:53;13.90;99.90
2100;DHT22;1055;48.854;9.302;2023-02-13T13:51:36;13.50;99.90
2100;DHT22;1055;48.854;9.302;2023-02-13T14:07:37;13.00;99.90
2100;DHT22;1055;48.854;9.302;2023-02-13T14:10:04;13.90;99.90
2100;DHT22;1055;48.854;9.302;2023-02-13T14:14:57;14.50;98.50
2100;DHT22;1055;48.854;9.302;2023-02-13T14:20:35;14.50;99.90
2100;DHT22;1055;48.854;9.302;2023-02-13T14:23:25;14.70;99.90
2100;DHT22;1055;48.854;9.302;2023-02-13T14:28:37;13.70;96.30
2100;DHT22;1055;48.854;9.302;2023-02-13T14:31:15;13.30;97.10
2100;DHT22;1055;48.854;9.302;2023-02-13T14:34:36;13.50;99.40
2100;DHT22;1055;48.854;9.302;2023-02-13T14:36:46;14.00;99.80
2100;DHT22;1055;48.854;9.302;2023-02-13T14:39:31;13.60;98.90
2100;DHT22;1055;48.854;9.302;2023-02-13T14:42:02;13.30;99.00
2100;DHT22;1055;48.854;9.302;2023-02-13T14:44:39;13.80;98.90
2100;DHT22;1055;48.854;9.302;2023-02-13T14:49:51;14.30;97.00
2100;DHT22;1055;48.854;9.302;2023-02-13T14:52:33;14.30;96.90
2100;DHT22;1055;48.854;9.302;2023-02-13T14:57:42;13.70;95.40
2100;DHT22;1055;48.854;9.302;2023-02-13T15:03:21;14.40;95.40
2100;DHT22;1055;48.854;9.302;2023-02-13T15:05:51;14.30;95.40
2100;DHT22;1055;48.854;9.302;2023-02-13T15:08:20;14.50;95.00
2100;DHT22;1055;48.854;9.302;2023-02-13T15:10:49;14.30;95.30
2100;DHT22;1055;48.854;9.302;2023-02-13T15:13:22;13.50;95.60
2100;DHT22;1055;48.854;9.302;2023-02-13T15:21:16;13.90;96.70
2100;DHT22;1055;48.854;9.302;2023-02-13T15:23:43;13.60;96.90
2100;DHT22;1055;48.854;9.302;2023-02-13T15:26:19;13.00;96.70
2100;DHT22;1055;48.854;9.302;2023-02-13T15:29:01;12.70;98.20
2100;DHT22;1055;48.854;9.302;2023-02-13T15:31:32;13.30;97.90
2100;DHT22;1055;48.854;9.302;2023-02-13T15:33:58;12.90;98.60
2100;DHT22;1055;48.854;9.302;2023-02-13T15:36:26;12.30;99.10
2100;DHT22;1055;48.854;9.302;2023-02-13T15:39:02;12.00;99.40
2100;DHT22;1055;48.854;9.302;2023-02-13T15:41:34;12.00;99.90
2100;DHT22;1055;48.854;9.302;2023-02-13T15:44:02;12.00;99.80
2100;DHT22;1055;48.854;9.302;2023-02-13T15:46:30;11.20;99.90
2100;DHT22;1055;48.854;9.302;2023-02-13T15:49:03;11.20;99.90
2100;DHT22;1055;48.854;9.302;2023-02-13T15:51:30;11.30;99.90
2100;DHT22;1055;48.854;9.302;2023-02-13T15:53:59;11.40;99.90
2100;DHT22;1055;48.854;9.302;2023-02-13T15:56:25;11.30;99.90
2100;DHT22;1055;48.854;9.302;2023-02-13T15:58:52;11.40;99.90
2100;DHT22;1055;48.854;9.302;2023-02-13T16:01:19;11.10;99.90
2100;DHT22;1055;48.854;9.302;2023-02-13T16:04:05;11.10;99.90
2100;DHT22;1055;48.854;9.302;2023-02-13T16:06:32;11.10;99.90
2100;DHT22;1055;48.854;9.302;2023-02-13T16:08:59;11.60;99.90
2100;DHT22;1055;48.854;9.302;2023-02-13T16:11:31;11.70;99.90
2100;DHT22;1055;48.854;9.302;2023-02-13T16:16:48;11.50;99.90
2100;DHT22;1055;48.854;9.302;2023-02-13T16:32:49;9.60;99.90
2100;DHT22;1055;48.854;9.302;2023-02-13T16:37:56;9.40;99.90
2100;DHT22;1055;48.854;9.302;2023-02-13T16:43:35;9.00;99.90
2100;DHT22;1055;48.854;9.302;2023-02-13T16:51:41;8.50;99.90
2100;DHT22;1055;48.854;9.302;2023-02-13T16:56:57;8.20;99.90
2100;DHT22;1055;48.854;9.302;2023-02-13T16:59:38;8.10;99.90
2100;DHT22;1055;48.854;9.302;2023-02-13T17:02:35;8.00;99.90
2100;DHT22;1055;48.854;9.302;2023-02-13T17:07:41;7.20;99.90
2100;DHT22;1055;48.854;9.302;2023-02-13T17:10:32;7.20;99.90
2100;DHT22;1055;48.854;9.302;2023-02-13T17:13:14;7.00;99.90
2100;DHT22;1055;48.854;9.302;2023-02-13T17:15:46;7.00;99.90
2100;DHT22;1055;48.854;9.302;2023-02-13T17:18:12;7.10;99.90
2100;DHT22;1055;48.854;9.302;2023-02-13T17:20:40;7.10;99.90
2100;DHT22;1055;48.854;9.302;2023-02-13T17:23:10;7.10;99.90
2100;DHT22;1055;48.854;9.302;2023-02-13T17:25:37;7.00;99.90
2100;DHT22;1055;48.854;9.302;2023-02-13T17:28:13;6.90;99.90
2100;DHT22;1055;48.854;9.302;2023-02-13T17:30:39;6.50;99.90
2100;DHT22;1055;48.854;9.302;2023-02-13T17:33:14;6.40;99.90
2100;DHT22;1055;48.854;9.302;2023-02-13T17:35:40;6.40;99.90
2100;DHT22;1055;48.854;9.302;2023-02-13T17:38:07;6.30;99.90
2100;DHT22;1055;48.854;9.302;2023-02-13T17:40:34;5.90;99.90
2100;DHT22;1055;48.854;9.302;2023-02-13T17:43:00;5.90;99.90
2100;DHT22;1055;48.854;9.302;2023-02-13T17:45:28;5.50;99.90
2100;DHT22;1055;48.854;9.302;2023-02-13T17:47:55;5.30;99.90
2100;DHT22;1055;48.854;9.302;2023-02-13T17:50:23;5.10;99.90
2100;DHT22;1055;48.854;9.302;2023-02-13T17:52:49;5.10;99.90
2100;DHT22;1055;48.854;9.302;2023-02-13T17:57:46;4.90;99.90
2100;DHT22;1055;48.854;9.302;2023-02-13T18:00:13;5.00;99.90
2100;DHT22;1055;48.854;9.302;2023-02-13T18:02:40;4.70;99.90
2100;DHT22;1055;48.854;9.302;2023-02-13T18:05:07;4.90;99.90
2100;DHT22;1055;48.854;9.302;2023-02-13T18:07:34;4.50;99.90
2100;DHT22;1055;48.854;9.302;2023-02-13T18:09:59;4.40;99.90
2100;DHT22;1055;48.854;9.302;2023-02-13T18:12:25;4.40;99.90
2100;DHT22;1055;48.854;9.302;2023-02-13T18:14:52;4.20;99.90
2100;DHT22;1055;48.854;9.302;2023-02-13T18:17:18;4.00;99.90
2100;DHT22;1055;48.854;9.302;2023-02-13T18:19:44;4.10;99.90
2100;DHT22;1055;48.854;9.302;2023-02-13T18:22:11;4.10;99.90
2100;DHT22;1055;48.854;9.302;2023-02-13T18:24:39;4.10;99.90
2100;DHT22;1055;48.854;9.302;2023-02-13T18:27:06;3.70;99.90
2100;DHT22;1055;48.854;9.302;2023-02-13T18:29:33;4.00;99.90
2100;DHT22;1055;48.854;9.302;2023-02-13T18:32:03;4.30;99.90
2100;DHT22;1055;48.854;9.302;2023-02-13T18:34:28;4.40;99.90
2100;DHT22;1055;48.854;9.302;2023-02-13T18:36:54;4.60;99.90
2100;DHT22;1055;48.854;9.302;2023-02-13T18:39:20;4.60;99.90
2100;DHT22;1055;48.854;9.302;2023-02-13T18:41:45;4.40;99.90
2100;DHT22;1055;48.854;9.302;2023-02-13T18:44:11;4.50;99.90
2100;DHT22;1055;48.854;9.302;2023-02-13T18:46:37;4.40;99.90
2100;DHT22;1055;48.854;9.302;2023-02-13T18:49:03;4.50;99.90
2100;DHT22;1055;48.854;9.302;2023-02-13T18:51:29;4.40;99.90
2100;DHT22;1055;48.854;9.302;2023-02-13T18:53:55;4.30;99.90
2100;DHT22;1055;48.854;9.302;2023-02-13T18:56:20;4.00;99.90
2100;DHT22;1055;48.854;9.302;2023-02-13T18:58:48;4.20;99.90
2100;DHT22;1055;48.854;9.302;2023-02-13T19:01:16;4.30;99.90
2100;DHT22;1055;48.854;9.302;2023-02-13T19:03:44;4.00;99.90
2100;DHT22;1055;48.854;9.302;2023-02-13T19:06:11;3.90;99.90
2100;DHT22;1055;48.854;9.302;2023-02-13T19:08:37;4.00;99.90
2100;DHT22;1055;48.854;9.302;2023-02-13T19:11:05;4.00;99.90
2100;DHT22;1055;48.854;9.302;2023-02-13T19:13:31;3.90;99.90
2100;DHT22;1055;48.854;9.302;2023-02-13T19:16:15;3.90;99.90
2100;DHT22;1055;48.854;9.302;2023-02-13T19:18:43;3.90;99.90
2100;DHT22;1055;48.854;9.302;2023-02-13T19:21:09;4.00;99.90
2100;DHT22;1055;48.854;9.302;2023-02-13T19:23:35;3.90;99.90
2100;DHT22;1055;48.854;9.302;2023-02-13T19:26:13;3.90;99.90
2100;DHT22;1055;48.854;9.302;2023-02-13T19:28:39;3.80;99.90
2100;DHT22;1055;48.854;9.302;2023-02-13T19:31:08;3.90;99.90
2100;DHT22;1055;48.854;9.302;2023-02-13T19:33:34;3.60;99.90
2100;DHT22;1055;48.854;9.302;2023-02-13T19:36:03;3.60;99.90
2100;DHT22;1055;48.854;9.302;2023-02-13T19:38:28;3.60;99.90
2100;DHT22;1055;48.854;9.302;2023-02-13T19:40:54;3.50;99.90
2100;DHT22;1055;48.854;9.302;2023-02-13T19:43:21;3.60;99.90
2100;DHT22;1055;48.854;9.302;2023-02-13T19:45:47;3.40;99.90
2100;DHT22;1055;48.854;9.302;2023-02-13T19:48:13;3.40;99.90
2100;DHT22;1055;48.854;9.302;2023-02-13T19:50:40;3.30;99.90
2100;DHT22;1055;48.854;9.302;2023-02-13T19:53:06;3.30;99.90
2100;DHT22;1055;48.854;9.302;2023-02-13T19:55:32;3.20;99.90
2100;DHT22;1055;48.854;9.302;2023-02-13T19:57:58;3.30;99.90